Time;durP1;ratioP1;P1;durP2;ratioP2;P2;SDS_P1;SDS_P2;PMS_P1;PMS_P2;Temp;Humidity;BMP_temperature;BMP_pressure;BME280_temperature;BME280_humidity;BME280_pressure;Samples;Min_cycle;Max_cycle;Signal;HPM_P1;HPM_P2
2021/04/02 00:00:30;;;;;;;4.78;1.02;;;;;;;4.85;82.70;101412.84;5014793;28;20074;-72
2021/04/02 00:02:57;;;;;;;3.30;1.05;;;;;;;4.75;82.51;101406.13;5000668;28;20137;-74
2021/04/02 00:05:24;;;;;;;4.65;1.10;;;;;;;4.73;82.97;101402.69;5002173;28;20044;-74
2021/04/02 00:07:51;;;;;;;3.28;1.23;;;;;;;4.71;82.44;101394.03;4982363;28;20224;-74
2021/04/02 00:10:20;;;;;;;6.18;1.33;;;;;;;4.78;82.04;101398.22;4991516;28;20141;-74
2021/04/02 00:12:47;;;;;;;3.50;1.02;;;;;;;4.81;81.85;101408.56;4990354;28;20042;-76
2021/04/02 00:15:21;;;;;;;4.70;1.23;;;;;;;4.80;81.66;101399.88;4997589;28;20050;-73
2021/04/02 00:17:51;;;;;;;5.15;1.02;;;;;;;4.80;81.95;101399.88;5007094;28;20169;-74
2021/04/02 00:20:18;;;;;;;5.65;1.10;;;;;;;4.63;82.66;101402.00;4984116;28;20137;-72
2021/04/02 00:22:45;;;;;;;4.15;1.20;;;;;;;4.73;81.81;101395.72;4976409;28;20128;-74
2021/04/02 00:25:14;;;;;;;4.97;1.30;;;;;;;4.82;81.23;101403.34;4972541;28;20057;-73
2021/04/02 00:27:40;;;;;;;2.45;1.00;;;;;;;4.73;81.53;101413.13;4987539;28;20045;-74
2021/04/02 00:30:11;;;;;;;3.72;1.38;;;;;;;4.69;81.71;101406.25;4992123;28;20565;-75
2021/04/02 00:32:37;;;;;;;2.05;1.00;;;;;;;4.73;81.87;101408.78;5003956;28;20152;-74
2021/04/02 00:35:05;;;;;;;3.97;1.20;;;;;;;4.72;81.44;101414.84;4966036;28;20129;-73
2021/04/02 00:37:32;;;;;;;3.30;1.30;;;;;;;4.65;81.72;101407.22;4981455;28;20125;-73
2021/04/02 00:39:58;;;;;;;3.42;1.40;;;;;;;4.63;81.95;101409.84;4976348;28;20050;-73
2021/04/02 00:42:26;;;;;;;4.85;1.65;;;;;;;4.53;81.99;101410.94;4988369;28;20122;-72
2021/04/02 00:44:53;;;;;;;3.15;1.20;;;;;;;4.65;81.32;101413.28;4969175;28;20048;-74
2021/04/02 00:47:19;;;;;;;5.40;2.17;;;;;;;4.66;81.34;101422.81;5001190;28;20082;-73
2021/04/02 00:49:46;;;;;;;3.67;1.30;;;;;;;4.56;81.25;101424.78;5011884;28;20052;-73
2021/04/02 00:52:13;;;;;;;3.00;1.30;;;;;;;4.55;81.41;101424.81;5002645;28;20104;-75
2021/04/02 00:54:40;;;;;;;4.13;1.45;;;;;;;4.38;81.04;101425.16;4992777;28;20137;-73
2021/04/02 00:57:06;;;;;;;4.18;1.13;;;;;;;4.42;80.53;101421.59;5003124;28;20161;-74
2021/04/02 00:59:33;;;;;;;3.47;1.38;;;;;;;4.37;80.70;101425.16;4996663;28;20131;-75
2021/04/02 01:02:00;;;;;;;9.65;2.05;;;;;;;4.10;81.52;101426.56;4995247;28;20115;-74
2021/04/02 01:04:31;;;;;;;7.88;1.55;;;;;;;4.10;81.82;101429.19;4989481;28;20427;-74
2021/04/02 01:06:57;;;;;;;6.95;2.67;;;;;;;4.15;81.68;101428.22;5000722;28;20128;-73
2021/04/02 01:09:24;;;;;;;4.72;1.70;;;;;;;4.22;80.55;101427.19;5010590;28;20077;-74
2021/04/02 01:11:51;;;;;;;8.75;1.90;;;;;;;3.98;81.16;101420.72;4971675;28;20043;-74
2021/04/02 01:14:19;;;;;;;6.60;1.98;;;;;;;3.88;81.71;101429.63;4973646;28;20141;-73
2021/04/02 01:16:46;;;;;;;5.20;1.33;;;;;;;3.99;81.62;101426.78;4986169;28;20049;-72
2021/04/02 01:19:17;;;;;;;8.05;2.00;;;;;;;3.97;81.68;101418.16;4973353;28;20415;-74
2021/04/02 01:21:51;;;;;;;6.43;1.60;;;;;;;4.04;80.68;101414.53;4998964;28;20102;-74
2021/04/02 01:24:21;;;;;;;8.35;1.73;;;;;;;3.81;82.13;101426.25;4976280;28;20052;-75
2021/04/02 01:27:06;;;;;;;4.72;1.60;;;;;;;3.60;82.61;101429.22;4988876;28;20111;-74
2021/04/02 01:29:54;;;;;;;5.75;1.83;;;;;;;3.68;82.84;101429.09;5001548;28;20369;-74
2021/04/02 01:32:25;;;;;;;8.52;1.98;;;;;;;3.63;82.22;101430.91;5002217;28;20054;-73
2021/04/02 01:34:55;;;;;;;5.28;1.75;;;;;;;3.57;83.08;101431.03;4999817;28;20068;-73
2021/04/02 01:37:33;;;;;;;5.38;1.60;;;;;;;3.69;82.77;101433.41;4983100;28;20045;-73
2021/04/02 01:40:03;;;;;;;4.72;1.63;;;;;;;3.62;82.50;101434.41;4979861;28;20168;-73
2021/04/02 01:42:31;;;;;;;5.97;2.00;;;;;;;3.51;82.77;101438.06;4982926;28;20607;-73
2021/04/02 01:44:58;;;;;;;5.18;1.58;;;;;;;3.55;83.00;101434.50;5002773;28;20060;-74
2021/04/02 01:47:26;;;;;;;4.70;1.60;;;;;;;3.42;83.67;101438.22;4999554;28;20133;-77
2021/04/02 01:49:54;;;;;;;7.15;1.83;;;;;;;3.41;83.48;101440.84;4970435;28;20219;-76
2021/04/02 01:52:22;;;;;;;5.68;1.67;;;;;;;3.29;83.61;101444.50;4984988;28;20113;-75
2021/04/02 01:54:49;;;;;;;4.53;1.60;;;;;;;3.13;84.49;101446.47;4973749;28;20403;-76
2021/04/02 01:57:17;;;;;;;7.72;2.10;;;;;;;3.11;84.85;101455.16;4991780;28;20151;-74
2021/04/02 01:59:45;;;;;;;5.10;1.65;;;;;;;3.03;85.03;101452.69;4999625;28;20128;-75
2021/04/02 02:02:13;;;;;;;6.63;2.30;;;;;;;2.99;85.55;101457.09;4985422;28;20420;-76
2021/04/02 02:04:41;;;;;;;5.03;1.80;;;;;;;2.97;85.73;101456.25;4974176;28;20141;-75
2021/04/02 02:07:08;;;;;;;1.92;1.38;;;;;;;3.06;85.18;101455.25;4997292;28;20266;-76
2021/04/02 02:09:38;;;;;;;4.90;2.20;;;;;;;2.99;85.51;101454.47;4984866;28;20132;-75
2021/04/02 02:12:08;;;;;;;8.15;2.00;;;;;;;2.78;86.40;101454.78;4997227;28;20046;-76
2021/04/02 02:14:38;;;;;;;5.70;1.92;;;;;;;2.73;86.47;101456.56;5013778;28;20184;-76
2021/04/02 02:17:09;;;;;;;4.82;1.70;;;;;;;2.65;87.03;101453.22;4978883;28;20126;-74
2021/04/02 02:19:37;;;;;;;4.13;2.28;;;;;;;2.53;87.50;101457.69;4953662;28;20048;-76
2021/04/02 02:22:12;;;;;;;4.72;2.30;;;;;;;2.52;88.36;101458.59;4990584;28;20070;-77
2021/04/02 02:25:08;;;;;;;;;;;;;;;;;;;;;
2021/04/02 02:27:38;;;;;;;6.57;1.98;;;;;;;2.42;88.52;101461.31;5004493;28;20090;-76
2021/04/02 02:30:21;;;;;;;3.97;1.95;;;;;;;2.49;88.59;101456.03;4986668;28;20153;-75
2021/04/02 02:32:50;;;;;;;8.88;2.33;;;;;;;2.41;89.59;101450.03;4983008;28;20114;-74
2021/04/02 02:35:18;;;;;;;4.15;1.88;;;;;;;2.48;89.35;101463.84;4985382;28;20504;-74
2021/04/02 02:37:46;;;;;;;8.18;2.85;;;;;;;2.37;90.05;101455.31;4981497;28;20050;-74
2021/04/02 02:40:20;;;;;;;9.98;3.15;;;;;;;2.39;89.83;101458.75;4959464;28;20078;-75
2021/04/02 02:42:49;;;;;;;9.27;2.47;;;;;;;2.38;89.42;101467.41;4963082;28;20042;-74
2021/04/02 02:45:16;;;;;;;6.20;2.55;;;;;;;2.23;90.34;101460.66;4989198;28;20094;-75
2021/04/02 02:47:43;;;;;;;6.32;2.25;;;;;;;2.36;89.29;101463.97;4982130;28;20068;-75
2021/04/02 02:50:14;;;;;;;7.78;3.10;;;;;;;2.23;89.05;101458.06;4976535;28;20592;-75
2021/04/02 02:52:41;;;;;;;5.93;2.63;;;;;;;2.22;89.57;101456.34;4987182;28;20053;-75
2021/04/02 02:55:10;;;;;;;7.93;3.08;;;;;;;2.16;89.80;101461.59;4986667;28;20109;-76
2021/04/02 02:57:38;;;;;;;4.00;2.55;;;;;;;2.00;90.44;101463.50;4967210;28;20107;-75
2021/04/02 03:00:14;;;;;;;5.03;2.97;;;;;;;2.11;90.15;101461.63;5003219;28;20049;-75
2021/04/02 03:02:43;;;;;;;7.53;2.90;;;;;;;2.02;90.66;101466.94;4986448;28;20053;-75
2021/04/02 03:05:10;;;;;;;6.50;2.92;;;;;;;2.00;90.70;101456.56;5011142;28;20068;-76
2021/04/02 03:07:38;;;;;;;9.20;2.90;;;;;;;1.96;91.25;101457.47;5018647;28;20050;-76
2021/04/02 03:10:10;;;;;;;6.43;3.00;;;;;;;1.93;91.59;101465.28;4976653;28;20070;-76
2021/04/02 03:12:39;;;;;;;7.63;2.80;;;;;;;1.96;91.21;101448.81;4988491;28;20046;-75
2021/04/02 03:15:08;;;;;;;9.48;3.30;;;;;;;1.88;91.56;101442.84;5018509;28;20132;-74
2021/04/02 03:17:37;;;;;;;9.45;3.55;;;;;;;1.82;91.97;101448.97;4991776;28;20472;-75
2021/04/02 03:20:07;;;;;;;6.15;3.17;;;;;;;1.96;91.57;101461.81;4997281;28;20084;-76
2021/04/02 03:22:35;;;;;;;7.22;3.28;;;;;;;2.06;90.97;101452.19;4975914;28;20080;-76
2021/04/02 03:25:14;;;;;;;6.53;3.38;;;;;;;1.90;91.68;101447.16;4974125;28;20077;-76
2021/04/02 03:27:41;;;;;;;6.90;3.30;;;;;;;1.92;91.39;101452.31;4999680;28;20084;-78
2021/04/02 03:30:11;;;;;;;7.47;3.20;;;;;;;1.82;91.80;101448.97;4979192;28;20054;-74
2021/04/02 03:32:40;;;;;;;9.50;3.55;;;;;;;1.71;92.71;101451.69;4998511;28;20592;-75
2021/04/02 03:35:17;;;;;;;6.80;3.58;;;;;;;1.84;91.84;101435.97;4973144;28;20101;-76
2021/04/02 03:37:47;;;;;;;7.53;3.70;;;;;;;1.69;92.64;101435.25;4970432;28;20508;-75
2021/04/02 03:40:17;;;;;;;10.43;3.80;;;;;;;1.65;92.87;101424.91;4972463;28;20049;-75
2021/04/02 03:42:50;;;;;;;7.53;3.65;;;;;;;1.64;93.45;101431.81;4974758;28;20045;-75
2021/04/02 03:45:17;;;;;;;9.88;3.63;;;;;;;1.54;93.13;101426.75;4973535;28;20050;-76
2021/04/02 03:47:46;;;;;;;6.28;3.40;;;;;;;1.60;93.13;101424.09;5004429;28;20183;-74
2021/04/02 03:50:15;;;;;;;10.27;3.67;;;;;;;1.47;94.14;101426.78;4972284;28;20201;-74
2021/04/02 03:52:44;;;;;;;8.55;3.50;;;;;;;1.45;94.36;101430.28;4985939;28;20137;-77
2021/04/02 03:55:17;;;;;;;6.57;3.67;;;;;;;1.58;93.90;101429.31;4982668;28;20596;-74
2021/04/02 03:57:44;;;;;;;11.70;3.50;;;;;;;1.38;94.60;101426.00;5002375;28;20068;-75
2021/04/02 04:00:32;;;;;;;8.23;3.97;;;;;;;1.24;95.74;101431.31;4995058;28;20480;-73
2021/04/02 04:03:01;;;;;;;16.20;5.18;;;;;;;1.17;96.12;101435.69;4993432;28;20140;-75
2021/04/02 04:05:28;;;;;;;9.48;4.13;;;;;;;1.15;96.76;101433.97;5003293;28;20188;-75
2021/04/02 04:07:56;;;;;;;7.00;4.03;;;;;;;1.11;96.75;101427.06;4998246;23;20105;-71
2021/04/02 04:10:24;;;;;;;9.88;4.45;;;;;;;1.07;97.05;101434.00;4986710;28;20476;-71
2021/04/02 04:12:53;;;;;;;5.95;4.35;;;;;;;0.99;98.21;101423.72;4993453;28;20078;-71
2021/04/02 04:15:20;;;;;;;14.35;4.82;;;;;;;0.99;98.29;101422.81;4999615;28;20081;-73
2021/04/02 04:17:48;;;;;;;9.23;4.72;;;;;;;1.00;98.45;101428.03;4988635;28;20053;-72
2021/04/02 04:20:19;;;;;;;6.15;4.32;;;;;;;0.98;98.30;101424.56;4987583;28;20095;-72
2021/04/02 04:22:48;;;;;;;10.73;4.55;;;;;;;0.93;98.65;101426.31;4976073;28;20507;-73
2021/04/02 04:25:19;;;;;;;11.85;5.18;;;;;;;0.92;99.14;101427.19;4999935;28;20057;-72
2021/04/02 04:27:47;;;;;;;7.80;4.47;;;;;;;0.90;99.03;101421.19;5002894;28;20140;-72
2021/04/02 04:30:14;;;;;;;11.65;7.10;;;;;;;0.89;99.27;101426.34;4984599;28;20057;-72
2021/04/02 04:32:41;;;;;;;10.38;5.32;;;;;;;0.85;99.76;101422.91;4995322;28;20141;-72
2021/04/02 04:35:14;;;;;;;16.25;6.05;;;;;;;0.89;99.57;101424.63;4974001;28;20043;-71
2021/04/02 04:37:42;;;;;;;8.93;5.60;;;;;;;0.91;100.00;101428.09;5001036;28;20556;-72
2021/04/02 04:40:12;;;;;;;12.40;5.78;;;;;;;0.96;99.57;101428.91;4969135;28;20073;-72
2021/04/02 04:42:41;;;;;;;14.80;6.53;;;;;;;0.97;99.84;101428.03;4981826;28;20174;-73
2021/04/02 04:45:09;;;;;;;10.88;5.45;;;;;;;0.98;99.83;101426.28;4967301;28;20412;-74
2021/04/02 04:47:37;;;;;;;12.30;5.03;;;;;;;0.93;99.77;101418.53;4980736;28;20043;-72
2021/04/02 04:50:05;;;;;;;10.80;5.55;;;;;;;1.04;100.00;101415.00;4968241;28;20069;-71
2021/04/02 04:52:36;;;;;;;10.00;5.65;;;;;;;1.08;99.67;101412.41;4997728;28;20129;-74
2021/04/02 04:55:04;;;;;;;10.90;6.55;;;;;;;1.06;99.69;101410.69;4982648;28;20082;-72
2021/04/02 04:57:33;;;;;;;11.80;5.95;;;;;;;1.07;99.77;101415.00;4982160;28;20046;-73
2021/04/02 05:00:01;;;;;;;10.43;5.40;;;;;;;1.08;99.71;101416.72;4955919;28;20055;-74
2021/04/02 05:02:28;;;;;;;7.28;5.45;;;;;;;1.09;99.38;101421.06;4983663;28;20170;-71
2021/04/02 05:04:57;;;;;;;11.50;5.43;;;;;;;1.15;99.86;101416.66;5007776;28;20096;-71
2021/04/02 05:07:24;;;;;;;9.55;4.78;;;;;;;1.15;99.38;101429.63;5008171;28;20118;-72
2021/04/02 05:09:52;;;;;;;9.88;5.05;;;;;;;1.40;98.97;101430.31;4971117;28;20051;-70
2021/04/02 05:12:19;;;;;;;13.50;5.15;;;;;;;1.58;97.85;101434.50;4989574;28;20046;-71
2021/04/02 05:14:47;;;;;;;8.70;5.15;;;;;;;1.78;97.17;101436.88;4990527;28;20057;-73
2021/04/02 05:17:14;;;;;;;10.85;5.15;;;;;;;2.25;94.83;101440.69;4993314;28;20059;-71
2021/04/02 05:19:42;;;;;;;6.97;4.43;;;;;;;2.86;92.81;101436.47;4958145;28;20130;-71
2021/04/02 05:22:09;;;;;;;6.97;3.58;;;;;;;3.59;88.76;101440.53;4990142;28;20137;-72
2021/04/02 05:24:37;;;;;;;6.88;3.70;;;;;;;3.96;85.67;101443.34;4978100;28;20722;-72
2021/04/02 05:27:05;;;;;;;7.88;4.05;;;;;;;3.86;85.79;101443.53;4953157;28;20134;-71
2021/04/02 05:29:32;;;;;;;8.38;2.78;;;;;;;4.23;84.11;101441.09;4956274;28;20493;-70
2021/04/02 05:31:59;;;;;;;7.70;3.33;;;;;;;4.62;81.00;101433.34;4961311;28;20099;-71
2021/04/02 05:34:26;;;;;;;5.55;2.72;;;;;;;4.57;82.21;101442.13;5002945;28;20077;-71
2021/04/02 05:36:53;;;;;;;12.23;3.38;;;;;;;4.58;81.98;101445.59;4996782;28;20057;-72
2021/04/02 05:39:20;;;;;;;6.53;3.90;;;;;;;4.85;80.18;101435.47;4977751;28;20050;-73
2021/04/02 05:41:51;;;;;;;4.22;2.85;;;;;;;5.78;76.64;101436.66;5003381;28;20073;-73
2021/04/02 05:44:26;;;;;;;7.97;2.90;;;;;;;7.09;72.68;101450.38;4964684;28;20105;-73
2021/04/02 05:46:54;;;;;;;3.28;2.50;;;;;;;7.41;69.21;101445.03;4958306;28;20650;-71
2021/04/02 05:49:21;;;;;;;5.05;2.78;;;;;;;7.85;67.16;101435.66;4976880;28;20056;-72
2021/04/02 05:51:48;;;;;;;6.47;2.63;;;;;;;8.51;64.78;101442.06;4990041;28;20074;-73
2021/04/02 05:54:44;;;;;;;5.45;3.08;;;;;;;7.80;65.61;101441.06;4995460;28;20128;-71
2021/04/02 05:57:10;;;;;;;9.18;3.17;;;;;;;7.45;67.60;101442.25;4992489;28;20482;-72
2021/04/02 05:59:38;;;;;;;7.13;3.00;;;;;;;7.67;67.06;101449.41;4996557;28;20172;-70
2021/04/02 06:02:06;;;;;;;6.97;3.38;;;;;;;6.62;70.18;101446.59;4985725;28;20065;-72
2021/04/02 06:04:33;;;;;;;6.88;3.40;;;;;;;6.75;70.67;101444.44;4976723;28;20068;-72
2021/04/02 06:07:00;;;;;;;9.43;4.22;;;;;;;6.81;70.04;101445.13;4958430;28;20058;-72
2021/04/02 06:09:27;;;;;;;12.48;4.35;;;;;;;5.34;74.83;101443.00;4990059;28;20126;-72
2021/04/02 06:11:53;;;;;;;11.65;4.30;;;;;;;5.62;74.39;101450.16;5000126;28;20085;-71
2021/04/02 06:14:20;;;;;;;8.48;5.28;;;;;;;6.00;73.78;101444.84;4967995;28;20078;-72
2021/04/02 06:16:50;;;;;;;10.52;4.55;;;;;;;6.17;73.51;101447.00;4963388;28;20053;-73
2021/04/02 06:19:17;;;;;;;11.27;5.70;;;;;;;5.29;76.07;101442.25;4955534;28;20051;-71
2021/04/02 06:21:53;;;;;;;9.15;4.93;;;;;;;5.00;78.10;101442.97;4982800;28;20084;-72
2021/04/02 06:24:40;;;;;;;9.20;4.68;;;;;;;4.93;78.68;101444.84;4975919;28;20053;-72
2021/04/02 06:27:09;;;;;;;10.30;4.55;;;;;;;4.25;82.62;101441.94;4985858;28;20137;-71
2021/04/02 06:29:41;;;;;;;7.20;5.07;;;;;;;4.42;81.30;101432.03;4987478;28;20093;-71
2021/04/02 06:32:13;;;;;;;10.18;5.32;;;;;;;4.16;82.37;101431.69;4971867;28;20049;-70
2021/04/02 06:34:46;;;;;;;12.80;6.32;;;;;;;4.04;84.72;101418.00;4997740;28;20073;-71
2021/04/02 06:37:14;;;;;;;11.38;5.47;;;;;;;4.40;82.26;101417.28;4994859;28;20068;-72
2021/04/02 06:39:49;;;;;;;8.77;5.40;;;;;;;5.03;79.56;101420.22;4986882;28;20101;-72
2021/04/02 06:42:35;;;;;;;13.48;5.90;;;;;;;4.97;80.46;101415.16;4969178;28;20046;-71
2021/04/02 06:45:04;;;;;;;7.65;5.68;;;;;;;5.58;77.83;101415.41;4988678;28;20066;-71
2021/04/02 06:47:35;;;;;;;9.68;5.63;;;;;;;5.62;76.55;101411.84;4962450;28;20042;-71
2021/04/02 06:50:23;;;;;;;12.10;6.25;;;;;;;3.93;83.28;101427.78;4953489;28;20058;-73
2021/04/02 06:52:55;;;;;;;9.15;6.47;;;;;;;4.04;84.17;101425.81;4971289;28;20133;-72
2021/04/02 06:55:23;;;;;;;9.68;6.28;;;;;;;4.01;84.80;101422.44;4977483;28;20080;-71
2021/04/02 06:57:52;;;;;;;10.70;7.05;;;;;;;3.90;85.99;101435.63;4986514;28;20066;-72
2021/04/02 07:00:22;;;;;;;11.10;6.13;;;;;;;4.53;83.70;101432.66;4969466;28;20492;-73
2021/04/02 07:02:50;;;;;;;12.32;6.75;;;;;;;4.40;83.56;101438.16;4974074;28;20061;-72
2021/04/02 07:05:20;;;;;;;12.00;6.25;;;;;;;4.86;82.21;101438.03;5001535;28;20596;-72
2021/04/02 07:07:52;;;;;;;12.23;7.22;;;;;;;5.08;80.95;101443.63;4963193;28;20464;-73
2021/04/02 07:10:22;;;;;;;10.55;6.50;;;;;;;5.38;80.58;101441.19;4984881;28;20114;-73
2021/04/02 07:12:56;;;;;;;11.30;7.82;;;;;;;5.26;79.69;101444.94;4997706;28;20047;-73
2021/04/02 07:15:23;;;;;;;13.93;8.23;;;;;;;5.26;80.09;101447.53;4997159;28;20070;-71
2021/04/02 07:17:50;;;;;;;14.77;9.00;;;;;;;5.12;80.81;101449.63;4983004;28;20042;-72
2021/04/02 07:20:17;;;;;;;18.25;9.48;;;;;;;5.08;81.50;101443.63;4989356;28;20058;-74
2021/04/02 07:22:44;;;;;;;17.50;9.32;;;;;;;5.23;83.39;101448.50;4990515;28;20041;-73
2021/04/02 07:25:11;;;;;;;18.40;10.15;;;;;;;5.66;81.21;101442.22;5003951;28;20086;-73
2021/04/02 07:27:38;;;;;;;18.13;10.13;;;;;;;5.72;81.00;101442.06;4980818;28;20122;-72
2021/04/02 07:30:08;;;;;;;18.33;9.07;;;;;;;6.11;78.88;101439.31;4998419;28;20050;-72
2021/04/02 07:32:38;;;;;;;14.05;9.13;;;;;;;6.33;76.76;101439.56;4999198;28;20445;-72
2021/04/02 07:35:05;;;;;;;16.08;8.95;;;;;;;5.75;78.33;101439.34;4974272;28;20102;-72
2021/04/02 07:37:38;;;;;;;14.07;9.15;;;;;;;6.04;76.68;101432.56;4992594;28;20596;-72
2021/04/02 07:40:08;;;;;;;13.80;8.90;;;;;;;6.00;76.90;101433.53;4976379;28;20430;-71
2021/04/02 07:42:35;;;;;;;15.82;9.35;;;;;;;6.25;76.14;101436.31;4989798;28;20441;-72
2021/04/02 07:45:04;;;;;;;13.10;8.38;;;;;;;6.23;75.83;101438.13;4992730;28;20054;-71
2021/04/02 07:47:31;;;;;;;13.57;8.43;;;;;;;6.33;75.60;101440.44;4996844;28;20451;-72
2021/04/02 07:50:02;;;;;;;11.85;8.20;;;;;;;6.25;76.17;101436.31;5008569;28;20085;-72
2021/04/02 07:52:35;;;;;;;11.35;8.25;;;;;;;5.77;77.18;101427.13;5005267;28;20042;-72
2021/04/02 07:55:08;;;;;;;10.15;7.53;;;;;;;6.23;76.00;101441.59;5001578;28;20118;-74
2021/04/02 07:57:58;;;;;;;11.27;7.65;;;;;;;5.97;76.37;101431.84;5008831;28;20046;-73
2021/04/02 08:00:30;;;;;;;15.15;6.45;;;;;;;7.45;71.00;101438.78;4997612;28;20560;-73
2021/04/02 08:03:14;;;;;;;8.35;5.95;;;;;;;8.41;66.52;101426.69;4989585;28;20133;-73
2021/04/02 08:05:54;;;;;;;7.82;5.90;;;;;;;8.73;64.60;101428.97;4994381;28;20092;-73
2021/04/02 08:08:23;;;;;;;9.02;6.30;;;;;;;8.35;65.54;101435.63;4995498;28;20058;-73
2021/04/02 08:11:07;;;;;;;11.68;6.75;;;;;;;8.21;66.52;101443.16;4984501;28;20114;-72
2021/04/02 08:13:53;;;;;;;7.38;5.50;;;;;;;9.50;61.93;101445.19;4982598;28;20051;-73
2021/04/02 08:16:36;;;;;;;7.95;5.68;;;;;;;10.71;57.31;101441.66;4985511;28;20503;-72
2021/04/02 08:19:14;;;;;;;9.77;6.15;;;;;;;14.17;47.83;101440.69;4971077;28;20105;-71
2021/04/02 08:21:56;;;;;;;7.63;5.47;;;;;;;14.96;45.13;101438.47;4989049;28;20138;-71
2021/04/02 08:24:32;;;;;;;8.50;5.25;;;;;;;14.22;46.08;101428.94;4992893;28;20090;-72
2021/04/02 08:26:59;;;;;;;;;;;;;;;13.52;47.50;101421.66;4993420;28;20050;-71
2021/04/02 08:29:28;;;;;;;7.82;5.90;;;;;;;12.84;50.19;101424.63;4975556;28;20367;-71
2021/04/02 08:31:57;;;;;;;9.15;5.95;;;;;;;13.56;48.90;101415.25;4967925;28;20037;-72
2021/04/02 08:34:27;;;;;;;10.43;6.20;;;;;;;14.25;45.22;101424.31;4973774;28;20080;-73
2021/04/02 08:36:56;;;;;;;8.70;6.80;;;;;;;14.30;44.98;101421.38;4985148;28;20041;-72
2021/04/02 08:39:24;;;;;;;8.60;6.60;;;;;;;16.09;40.57;101407.88;4979968;28;20053;-72
2021/04/02 08:41:56;;;;;;;11.40;6.70;;;;;;;15.17;43.07;101408.78;4985843;28;20145;-73
2021/04/02 08:44:31;;;;;;;9.27;6.57;;;;;;;15.13;42.34;101401.97;4993291;28;20453;-71
2021/04/02 08:47:04;;;;;;;14.75;6.25;;;;;;;12.84;49.91;101407.94;4965597;28;20353;-72
2021/04/02 08:49:44;;;;;;;9.80;6.82;;;;;;;11.30;52.64;101403.69;4973219;28;20077;-73
2021/04/02 08:52:16;;;;;;;10.25;6.30;;;;;;;10.59;55.75;101411.50;4975326;28;20061;-73
2021/04/02 08:54:44;;;;;;;10.25;5.90;;;;;;;9.34;58.87;101408.16;4983977;28;20081;-73
2021/04/02 08:57:13;;;;;;;9.48;5.18;;;;;;;8.96;61.17;101400.94;4996115;28;20041;-71
2021/04/02 08:59:44;;;;;;;9.32;6.10;;;;;;;9.51;61.01;101382.94;4944069;28;20114;-72
2021/04/02 09:02:15;;;;;;;11.75;6.28;;;;;;;9.68;59.53;101379.56;4958667;28;20054;-72
2021/04/02 09:04:43;;;;;;;9.00;5.68;;;;;;;9.39;61.17;101381.69;4991103;28;20101;-71
2021/04/02 09:07:10;;;;;;;7.13;5.50;;;;;;;8.87;61.64;101379.41;4966474;28;20146;-72
2021/04/02 09:09:42;;;;;;;9.18;5.72;;;;;;;8.99;62.30;101385.09;4993571;28;20635;-74
2021/04/02 09:12:14;;;;;;;7.03;5.10;;;;;;;8.03;65.53;101387.81;4978461;28;20058;-73
2021/04/02 09:14:45;;;;;;;9.30;5.57;;;;;;;8.44;64.98;101387.25;4972779;28;20386;-73
2021/04/02 09:17:26;;;;;;;13.05;7.32;;;;;;;8.60;64.46;101383.09;4982640;28;20057;-73
2021/04/02 09:19:53;;;;;;;10.23;6.85;;;;;;;9.04;62.92;101375.25;5002746;28;20396;-71
2021/04/02 09:22:21;;;;;;;9.15;5.65;;;;;;;8.45;63.55;101381.06;4993816;28;20062;-72
2021/04/02 09:24:48;;;;;;;9.93;6.10;;;;;;;8.10;66.06;101370.97;4995457;28;20119;-73
2021/04/02 09:27:20;;;;;;;8.13;5.75;;;;;;;7.64;67.21;101363.03;5002729;28;20094;-73
2021/04/02 09:29:55;;;;;;;10.02;6.88;;;;;;;7.64;67.02;101353.38;4966250;28;20101;-72
2021/04/02 09:32:26;;;;;;;10.32;7.47;;;;;;;8.02;66.16;101357.28;4995544;28;20137;-72
2021/04/02 09:34:53;;;;;;;9.35;7.55;;;;;;;8.68;64.24;101359.19;4979593;28;20077;-72
2021/04/02 09:37:20;;;;;;;6.57;5.60;;;;;;;9.13;63.55;101359.97;4979231;28;20081;-72
2021/04/02 09:39:47;;;;;;;8.27;5.13;;;;;;;9.39;61.56;101353.63;4984412;28;20057;-72
2021/04/02 09:42:15;;;;;;;7.45;5.47;;;;;;;9.61;59.47;101353.56;4979063;28;20085;-73
2021/04/02 09:44:46;;;;;;;7.13;5.00;;;;;;;9.70;58.80;101346.19;4983228;28;20034;-71
2021/04/02 09:47:13;;;;;;;9.10;6.07;;;;;;;9.89;58.54;101350.56;4982438;28;20037;-71
2021/04/02 09:49:44;;;;;;;8.88;5.72;;;;;;;10.41;57.75;101338.66;4962180;28;20092;-72
2021/04/02 09:52:11;;;;;;;9.57;5.72;;;;;;;10.05;57.12;101339.38;5000825;28;20081;-71
2021/04/02 09:54:38;;;;;;;9.05;5.18;;;;;;;9.30;60.81;101332.13;4984467;28;20053;-71
2021/04/02 09:57:07;;;;;;;5.60;4.30;;;;;;;10.14;58.73;101334.53;4992584;28;20058;-70
2021/04/02 09:59:36;;;;;;;4.47;3.42;;;;;;;10.47;54.94;101331.28;4977816;28;20042;-72
2021/04/02 10:02:04;;;;;;;9.35;4.10;;;;;;;10.56;55.35;101324.75;4984362;28;20038;-72
2021/04/02 10:04:31;;;;;;;7.18;4.43;;;;;;;10.03;57.01;101328.91;4962639;28;20182;-72
2021/04/02 10:06:58;;;;;;;6.95;3.28;;;;;;;9.76;56.92;101317.84;4998335;28;20565;-73
2021/04/02 10:09:25;;;;;;;5.90;3.65;;;;;;;9.80;56.78;101308.91;4970484;23;20037;-75
2021/04/02 10:11:52;;;;;;;5.65;3.47;;;;;;;9.22;56.51;101305.31;4990749;28;20037;-75
2021/04/02 10:14:19;;;;;;;4.38;2.63;;;;;;;9.17;55.94;101310.78;5010284;28;20139;-75
2021/04/02 10:16:46;;;;;;;3.65;2.28;;;;;;;9.03;56.32;101300.84;4977859;28;20144;-74
2021/04/02 10:19:15;;;;;;;2.88;2.22;;;;;;;9.32;55.26;101306.63;5013104;28;20618;-74
2021/04/02 10:21:42;;;;;;;5.43;3.20;;;;;;;9.81;54.76;101304.50;5003137;28;20604;-76
2021/04/02 10:24:09;;;;;;;6.88;3.40;;;;;;;9.44;55.33;101307.91;4993829;28;20077;-77
2021/04/02 10:26:37;;;;;;;3.40;2.28;;;;;;;9.25;54.52;101297.31;5012933;28;20076;-74
2021/04/02 10:29:04;;;;;;;7.13;2.00;;;;;;;8.71;53.70;101296.94;5003522;28;20167;-75
2021/04/02 10:31:31;;;;;;;5.35;1.83;;;;;;;8.96;53.80;101291.53;4996994;28;20077;-76
2021/04/02 10:33:58;;;;;;;7.03;1.90;;;;;;;8.70;52.52;101279.47;4982047;28;20050;-76
2021/04/02 10:36:25;;;;;;;4.75;1.40;;;;;;;9.18;50.84;101287.97;4984393;28;20511;-76
2021/04/02 10:38:51;;;;;;;4.15;1.92;;;;;;;8.95;51.61;101286.31;5012195;28;20049;-77
2021/04/02 10:41:18;;;;;;;2.97;1.73;;;;;;;8.57;53.63;101281.72;5005983;28;20061;-77
2021/04/02 10:43:45;;;;;;;2.05;1.52;;;;;;;8.84;53.22;101281.53;5009724;28;20141;-76
2021/04/02 10:46:13;;;;;;;5.43;1.70;;;;;;;8.78;51.82;101284.38;4977917;28;20045;-73
2021/04/02 10:48:40;;;;;;;3.95;1.80;;;;;;;9.03;51.52;101276.38;4980880;28;20480;-77
2021/04/02 10:51:07;;;;;;;5.30;1.33;;;;;;;9.26;49.40;101273.59;4997020;28;20046;-75
2021/04/02 10:53:34;;;;;;;5.88;1.60;;;;;;;8.76;52.03;101279.22;4995573;28;20042;-76
2021/04/02 10:56:03;;;;;;;3.67;1.80;;;;;;;8.79;52.60;101268.59;4970355;28;20117;-76
2021/04/02 10:58:31;;;;;;;4.30;1.88;;;;;;;8.90;52.39;101268.13;5012330;28;20062;-75
2021/04/02 11:00:58;;;;;;;3.75;1.77;;;;;;;8.80;51.79;101254.53;4999667;28;20061;-74
2021/04/02 11:03:25;;;;;;;2.75;1.60;;;;;;;8.82;52.26;101251.84;4994619;28;20049;-74
2021/04/02 11:05:52;;;;;;;4.97;2.00;;;;;;;8.84;52.71;101250.03;4997347;28;20128;-75
2021/04/02 11:08:19;;;;;;;3.45;2.15;;;;;;;8.85;52.98;101249.09;4996674;28;20141;-76
2021/04/02 11:10:46;;;;;;;2.83;1.70;;;;;;;8.90;53.35;101243.66;4989680;28;20050;-74
2021/04/02 11:13:12;;;;;;;3.67;1.52;;;;;;;9.30;51.54;101240.19;4996128;28;20069;-74
2021/04/02 11:15:39;;;;;;;2.53;1.60;;;;;;;9.96;49.85;101238.06;4978087;28;20615;-75
2021/04/02 11:18:06;;;;;;;1.90;1.45;;;;;;;9.81;48.14;101228.22;5007407;28;20136;-75
2021/04/02 11:20:33;;;;;;;3.75;1.58;;;;;;;9.67;49.66;101220.97;5013707;28;20122;-73
2021/04/02 11:23:00;;;;;;;4.75;2.47;;;;;;;9.46;51.91;101224.59;4997374;28;20070;-76
2021/04/02 11:25:27;;;;;;;6.72;2.28;;;;;;;9.62;51.37;101222.97;4980406;28;20131;-74
2021/04/02 11:27:54;;;;;;;3.28;1.90;;;;;;;9.63;51.17;101214.16;5013503;28;20133;-76
2021/04/02 11:30:21;;;;;;;3.40;1.77;;;;;;;10.03;50.10;101207.91;5013147;28;20121;-77
2021/04/02 11:32:49;;;;;;;3.33;1.90;;;;;;;10.16;50.03;101213.44;4999357;28;20045;-74
2021/04/02 11:35:16;;;;;;;4.32;2.20;;;;;;;10.26;49.65;101198.94;5009901;28;20164;-76
2021/04/02 11:37:43;;;;;;;4.97;2.17;;;;;;;10.56;48.99;101201.84;4992079;28;20078;-75
2021/04/02 11:40:11;;;;;;;3.00;2.17;;;;;;;10.89;47.85;101198.44;5007058;28;20050;-74
2021/04/02 11:42:38;;;;;;;5.05;2.25;;;;;;;10.96;47.61;101193.72;4984547;28;20581;-76